createdAt,value
2022-11-04T00:01:32.557Z,64.25
2022-11-04T00:03:59.665Z,62.05
2022-11-04T00:06:26.687Z,60.45
2022-11-04T00:08:55.372Z,61.92
2022-11-04T00:11:41.341Z,63.65
2022-11-04T00:14:09.635Z,62.25
2022-11-04T00:16:55.490Z,60.45
2022-11-04T00:19:22.913Z,63.38
2022-11-04T00:22:09.197Z,62.72
2022-11-04T00:24:55.015Z,60.10
2022-11-04T00:27:40.559Z,61.35
2022-11-04T00:30:10.254Z,62.10
2022-11-04T00:32:55.815Z,77.13
2022-11-04T00:35:24.310Z,71.38
2022-11-04T00:37:51.307Z,78.88
2022-11-04T00:40:18.452Z,75.35
2022-11-04T00:42:46.566Z,76.30
2022-11-04T00:45:16.791Z,80.75
2022-11-04T00:47:43.847Z,79.35
2022-11-04T00:50:11.005Z,77.75
2022-11-04T00:52:38.345Z,77.63
2022-11-04T00:55:05.906Z,89.78
2022-11-04T00:57:32.992Z,70.07
2022-11-04T01:00:00.007Z,79.82
2022-11-04T01:02:27.102Z,76.90
2022-11-04T01:04:54.743Z,75.20
2022-11-04T01:07:21.835Z,76.65
2022-11-04T01:09:49.647Z,76.53
2022-11-04T01:12:17.213Z,84.95
2022-11-04T01:14:45.272Z,72.80
2022-11-04T01:17:12.271Z,76.15
2022-11-04T01:19:39.233Z,76.93
2022-11-04T01:22:06.261Z,78.38
2022-11-04T01:24:38.561Z,78.00
2022-11-04T01:27:05.581Z,77.35
2022-11-04T01:29:32.629Z,79.30
2022-11-04T01:31:59.636Z,79.85
2022-11-04T01:34:26.705Z,81.15
2022-11-04T01:36:53.715Z,73.30
2022-11-04T01:39:20.725Z,82.80
2022-11-04T01:41:47.737Z,77.93
2022-11-04T01:44:42.650Z,76.75
2022-11-04T01:47:29.123Z,78.40
2022-11-04T01:50:14.661Z,74.32
2022-11-04T01:53:04.662Z,80.60
2022-11-04T01:55:35.025Z,84.40
2022-11-04T01:58:07.753Z,76.60
2022-11-04T02:00:34.881Z,80.40
2022-11-04T02:03:10.196Z,80.97
2022-11-04T02:05:38.567Z,82.07
2022-11-04T02:08:08.422Z,73.72
2022-11-04T02:10:36.013Z,71.97
2022-11-04T02:13:05.395Z,73.60
2022-11-04T02:15:43.098Z,74.38
2022-11-04T02:18:31.381Z,71.47
2022-11-04T02:21:20.265Z,77.63
2022-11-04T02:24:08.779Z,75.57
2022-11-04T02:26:38.672Z,69.03
2022-11-04T02:29:17.714Z,70.05
2022-11-04T02:32:07.797Z,70.80
2022-11-04T02:35:05.049Z,68.57
2022-11-04T02:37:35.298Z,67.82
2022-11-04T02:40:24.992Z,64.95
2022-11-04T02:42:51.962Z,59.83
2022-11-04T02:45:24.705Z,64.70
2022-11-04T02:48:07.605Z,66.60
2022-11-04T02:51:06.385Z,62.50
2022-11-04T02:53:41.521Z,59.90
2022-11-04T02:56:09.872Z,67.55
2022-11-04T02:58:52.853Z,67.63
2022-11-04T03:01:23.762Z,60.45
2022-11-04T03:03:57.193Z,64.18
2022-11-04T03:06:25.962Z,64.90
2022-11-04T03:08:55.308Z,61.15
2022-11-04T03:11:25.873Z,66.80
2022-11-04T03:13:59.303Z,57.88
2022-11-04T03:16:38.805Z,62.35
2022-11-04T03:19:16.527Z,66.75
2022-11-04T03:22:03.757Z,61.13
2022-11-04T03:24:31.576Z,59.33
2022-11-04T03:27:21.388Z,57.85
2022-11-04T03:30:11.946Z,57.08
2022-11-04T03:32:57.092Z,56.95
2022-11-04T03:35:24.800Z,60.40
2022-11-04T03:37:51.949Z,56.10
2022-11-04T03:40:20.632Z,57.90
2022-11-04T03:43:01.331Z,70.13
2022-11-04T03:45:28.419Z,60.13
2022-11-04T03:47:56.775Z,59.90
2022-11-04T03:50:28.175Z,61.40
2022-11-04T03:52:56.007Z,63.70
2022-11-04T03:55:39.219Z,56.78
2022-11-04T03:58:13.591Z,56.08
2022-11-04T04:00:52.142Z,62.30
2022-11-04T04:03:27.195Z,60.58
2022-11-04T04:06:09.410Z,63.03
2022-11-04T04:08:39.079Z,63.50
2022-11-04T04:11:21.844Z,58.83
2022-11-04T04:14:37.825Z,57.35
2022-11-04T04:17:31.581Z,56.80
2022-11-04T04:20:05.290Z,58.35
2022-11-04T04:22:37.249Z,59.30
2022-11-04T04:25:25.789Z,68.30
2022-11-04T04:27:55.261Z,60.08
2022-11-04T04:30:22.262Z,59.45
2022-11-04T04:32:53.942Z,68.22
2022-11-04T04:35:42.209Z,66.70
2022-11-04T04:38:42.608Z,77.00
2022-11-04T04:41:48.912Z,72.78
2022-11-04T04:44:47.792Z,79.10
2022-11-04T04:47:23.594Z,96.30
2022-11-04T04:50:00.864Z,99.78
2022-11-04T04:52:31.765Z,95.22
2022-11-04T04:54:58.993Z,90.45
2022-11-04T04:57:26.113Z,90.53
2022-11-04T04:59:53.145Z,90.80
2022-11-04T05:02:20.299Z,85.80
2022-11-04T05:04:47.421Z,90.50
2022-11-04T05:07:14.665Z,87.20
2022-11-04T05:09:41.659Z,88.55
2022-11-04T05:12:10.085Z,87.25
2022-11-04T05:14:37.356Z,81.97
2022-11-04T05:17:04.773Z,78.70
2022-11-04T05:19:31.843Z,79.80
2022-11-04T05:21:58.945Z,78.57
2022-11-04T05:24:25.938Z,74.63
2022-11-04T05:26:53.006Z,70.53
2022-11-04T05:29:20.084Z,73.93
2022-11-04T05:31:47.048Z,68.15
2022-11-04T05:34:14.805Z,70.35
2022-11-04T05:36:42.105Z,75.80
2022-11-04T05:39:13.410Z,100.35
2022-11-04T05:41:40.465Z,88.70
2022-11-04T05:44:09.735Z,75.63
2022-11-04T05:46:36.765Z,72.60
2022-11-04T05:49:04.273Z,70.05
2022-11-04T05:51:32.314Z,64.70
2022-11-04T05:53:59.452Z,67.50
2022-11-04T05:56:27.769Z,54.17
2022-11-04T05:58:55.383Z,53.20
2022-11-04T06:01:32.700Z,55.67
2022-11-04T06:04:01.169Z,64.40
2022-11-04T06:06:32.766Z,60.72
2022-11-04T06:09:00.614Z,62.35
2022-11-04T06:11:29.297Z,49.13
2022-11-04T06:13:57.419Z,55.40
2022-11-04T06:16:25.057Z,52.28
2022-11-04T06:18:52.910Z,46.17
2022-11-04T06:21:32.246Z,50.20
2022-11-04T06:24:00.326Z,54.00
2022-11-04T06:26:29.365Z,59.50
2022-11-04T06:28:57.272Z,41.38
2022-11-04T06:31:24.504Z,56.03
2022-11-04T06:33:51.500Z,44.67
2022-11-04T06:36:18.519Z,46.50
2022-11-04T06:38:45.730Z,46.03
2022-11-04T06:41:15.831Z,51.60
2022-11-04T06:43:42.975Z,60.55
2022-11-04T06:46:33.994Z,45.35
2022-11-04T06:49:01.151Z,47.42
2022-11-04T06:51:28.402Z,48.08
2022-11-04T06:53:55.466Z,44.78
2022-11-04T06:56:22.448Z,43.08
2022-11-04T06:58:51.508Z,44.05
2022-11-04T07:01:22.401Z,47.20
2022-11-04T07:03:55.000Z,46.38
2022-11-04T07:06:22.848Z,41.78
2022-11-04T07:08:51.435Z,45.63
2022-11-04T07:11:21.523Z,46.10
2022-11-04T07:13:49.946Z,49.83
2022-11-04T07:16:18.180Z,41.63
2022-11-04T07:18:45.373Z,38.17
2022-11-04T07:21:13.088Z,46.40
2022-11-04T07:23:40.182Z,45.65
2022-11-04T07:26:09.116Z,44.33
2022-11-04T07:28:37.021Z,42.85
2022-11-04T07:31:06.028Z,47.67
2022-11-04T07:33:34.022Z,44.92
2022-11-04T07:36:10.670Z,50.80
2022-11-04T07:38:37.689Z,46.72
2022-11-04T07:41:05.535Z,40.33
2022-11-04T07:43:32.592Z,43.80
2022-11-04T07:46:05.740Z,48.35
2022-11-04T07:48:32.989Z,47.95
2022-11-04T07:51:01.567Z,39.30
2022-11-04T07:53:30.433Z,38.35
2022-11-04T07:55:58.418Z,40.33
2022-11-04T07:58:28.575Z,44.97
2022-11-04T08:01:00.452Z,40.40
2022-11-04T08:03:27.639Z,44.05
2022-11-04T08:05:59.624Z,41.67
2022-11-04T08:08:27.829Z,48.20
2022-11-04T08:11:15.842Z,39.65
2022-11-04T08:13:44.348Z,47.38
2022-11-04T08:16:14.730Z,51.08
2022-11-04T08:18:42.777Z,51.15
2022-11-04T08:21:11.041Z,44.75
2022-11-04T08:23:38.084Z,44.72
2022-11-04T08:26:13.080Z,42.97
2022-11-04T08:28:40.373Z,44.47
2022-11-04T08:31:20.700Z,48.45
2022-11-04T08:33:51.594Z,46.33
2022-11-04T08:36:18.595Z,47.03
2022-11-04T08:38:46.108Z,41.80
2022-11-04T08:41:15.361Z,48.92
2022-11-04T08:43:43.392Z,38.40
2022-11-04T08:46:11.410Z,51.28
2022-11-04T08:48:39.754Z,43.88
2022-11-04T08:51:14.449Z,46.40
2022-11-04T08:53:41.647Z,48.08
2022-11-04T08:56:18.235Z,53.90
2022-11-04T08:58:45.825Z,49.05
2022-11-04T09:01:13.956Z,56.58
2022-11-04T09:03:42.363Z,54.90
2022-11-04T09:06:13.057Z,51.88
2022-11-04T09:08:40.838Z,53.60
2022-11-04T09:11:10.744Z,58.47
2022-11-04T09:13:39.933Z,53.40
2022-11-04T09:16:07.898Z,46.10
2022-11-04T09:18:35.205Z,47.35
2022-11-04T09:21:03.970Z,49.55
2022-11-04T09:23:31.136Z,47.00
2022-11-04T09:26:03.981Z,46.97
2022-11-04T09:28:31.327Z,50.20
2022-11-04T09:30:58.502Z,49.65
2022-11-04T09:33:25.486Z,46.15
2022-11-04T09:35:58.681Z,43.25
2022-11-04T09:38:26.289Z,46.58
2022-11-04T09:40:53.848Z,51.30
2022-11-04T09:43:26.874Z,46.60
2022-11-04T09:45:55.299Z,53.20
2022-11-04T09:48:28.934Z,46.10
2022-11-04T09:51:00.100Z,49.38
2022-11-04T09:53:32.991Z,52.55
2022-11-04T09:58:42.352Z,47.08
2022-11-04T10:01:12.301Z,46.70
2022-11-04T10:04:03.753Z,44.53
2022-11-04T10:06:53.714Z,43.83
2022-11-04T10:09:30.831Z,44.42
2022-11-04T10:12:23.458Z,42.30
2022-11-04T10:15:15.425Z,45.55
2022-11-04T10:17:59.769Z,42.38
2022-11-04T10:20:43.442Z,49.53
2022-11-04T10:23:13.741Z,42.40
2022-11-04T10:26:20.860Z,42.97
2022-11-04T10:28:56.386Z,41.40
2022-11-04T10:31:24.711Z,42.85
2022-11-04T10:34:16.022Z,49.03
2022-11-04T10:36:43.683Z,43.72
2022-11-04T10:39:21.059Z,49.17
2022-11-04T10:41:48.118Z,47.97
2022-11-04T10:44:35.647Z,57.60
2022-11-04T10:47:20.744Z,50.58
2022-11-04T10:50:28.236Z,50.55
2022-11-04T10:53:13.954Z,59.60
2022-11-04T10:55:46.748Z,49.85
2022-11-04T10:58:25.579Z,47.45
2022-11-04T11:00:54.660Z,52.38
2022-11-04T11:03:42.702Z,48.67
2022-11-04T11:06:24.831Z,42.20
2022-11-04T11:08:54.532Z,49.37
2022-11-04T11:12:17.866Z,48.00
2022-11-04T11:14:52.133Z,47.60
2022-11-04T11:17:22.893Z,47.35
2022-11-04T11:19:59.693Z,41.25
2022-11-04T11:22:42.016Z,46.22
2022-11-04T11:25:21.998Z,49.73
2022-11-04T11:28:06.932Z,46.58
2022-11-04T11:30:49.606Z,46.17
2022-11-04T11:33:33.492Z,52.97
2022-11-04T11:36:18.409Z,56.00
2022-11-04T11:38:59.790Z,51.42
2022-11-04T11:41:33.492Z,61.28
2022-11-04T11:44:18.889Z,55.70
2022-11-04T11:46:54.846Z,54.75
2022-11-04T11:49:44.267Z,57.83
2022-11-04T11:52:38.456Z,52.15
2022-11-04T11:55:26.676Z,52.42
2022-11-04T12:01:03.186Z,60.88
2022-11-04T12:06:33.278Z,65.30
2022-11-04T12:09:21.527Z,61.20
2022-11-04T12:12:10.408Z,64.80
2022-11-04T12:15:01.568Z,72.82
2022-11-04T12:17:28.609Z,71.03
2022-11-04T12:20:26.459Z,72.32
2022-11-04T12:22:56.175Z,69.82
2022-11-04T12:25:42.821Z,78.35
2022-11-04T12:28:15.689Z,66.28
2022-11-04T12:33:41.566Z,70.13
2022-11-04T12:36:29.984Z,82.25
2022-11-04T12:39:14.704Z,84.07
2022-11-04T12:42:21.115Z,75.30
2022-11-04T12:44:58.234Z,81.25
2022-11-04T12:47:38.791Z,76.20
2022-11-04T12:50:21.024Z,71.10
2022-11-04T12:53:16.596Z,66.67
2022-11-04T12:56:12.625Z,67.85
2022-11-04T12:59:08.796Z,61.10
2022-11-04T13:01:39.836Z,46.22
2022-11-04T13:04:14.744Z,51.20
2022-11-04T13:07:00.800Z,36.58
2022-11-04T13:09:48.563Z,17.08
2022-11-04T13:12:25.562Z,12.52
2022-11-04T13:14:58.505Z,7.03
2022-11-04T13:17:39.452Z,6.57
2022-11-04T13:20:14.995Z,5.40
2022-11-04T13:22:46.556Z,3.80
2022-11-04T13:25:35.195Z,4.47
2022-11-04T13:28:03.285Z,2.80
2022-11-04T13:30:30.231Z,4.95
2022-11-04T13:33:17.799Z,11.20
2022-11-04T13:36:05.889Z,4.07
2022-11-04T13:38:36.619Z,4.07
2022-11-04T13:41:31.428Z,5.55
2022-11-04T13:44:05.722Z,4.80
2022-11-04T13:46:34.944Z,5.28
2022-11-04T13:49:16.317Z,7.95
2022-11-04T13:51:44.693Z,5.88
2022-11-04T13:54:31.937Z,3.55
2022-11-04T13:57:19.440Z,3.17
2022-11-04T14:00:08.318Z,4.25
2022-11-04T14:02:40.028Z,11.75
2022-11-04T14:05:32.500Z,28.40
2022-11-04T14:07:59.703Z,30.92
2022-11-04T14:10:45.481Z,26.88
2022-11-04T14:13:35.099Z,14.38
2022-11-04T14:16:03.885Z,5.32
2022-11-04T14:18:42.101Z,12.60
2022-11-04T14:21:14.679Z,16.92
2022-11-04T14:26:12.838Z,10.98
2022-11-04T14:28:47.205Z,85.85
2022-11-04T14:31:17.622Z,40.05
2022-11-04T14:33:58.147Z,29.95
2022-11-04T14:36:26.456Z,17.33
2022-11-04T14:39:31.446Z,9.57
2022-11-04T14:42:02.004Z,10.85
2022-11-04T14:44:49.557Z,8.30
2022-11-04T14:47:33.261Z,18.45
2022-11-04T14:50:00.278Z,55.90
2022-11-04T14:52:42.276Z,47.03
2022-11-04T14:55:12.419Z,51.43
2022-11-04T14:58:00.772Z,50.05
2022-11-04T15:00:30.609Z,61.45
2022-11-04T15:04:08.584Z,62.75
2022-11-04T15:06:10.127Z,63.63
2022-11-04T15:08:44.495Z,60.92
2022-11-04T15:11:16.978Z,59.13
2022-11-04T15:13:49.023Z,54.53
2022-11-04T15:16:18.860Z,58.50
2022-11-04T15:18:46.232Z,54.42
2022-11-04T15:21:13.649Z,90.05
2022-11-04T15:23:53.162Z,70.55
2022-11-04T15:26:30.435Z,68.53
2022-11-04T15:29:00.930Z,63.17
2022-11-04T15:31:30.857Z,62.25
2022-11-04T15:34:03.171Z,68.07
2022-11-04T15:36:42.446Z,64.82
2022-11-04T15:39:16.527Z,71.93
2022-11-04T15:42:03.996Z,63.47
2022-11-04T15:44:33.376Z,64.22
2022-11-04T15:47:21.233Z,66.85
2022-11-04T15:49:50.425Z,64.00
2022-11-04T15:52:24.686Z,54.97
2022-11-04T15:54:54.629Z,64.72
2022-11-04T15:57:25.905Z,69.63
2022-11-04T16:00:16.281Z,77.18
2022-11-04T16:02:49.600Z,18.25
2022-11-04T16:05:16.755Z,18.85
2022-11-04T16:07:49.807Z,7.55
2022-11-04T16:10:33.293Z,6.32
2022-11-04T16:13:17.199Z,5.88
2022-11-04T16:16:13.740Z,10.23
2022-11-04T16:18:45.457Z,5.43
2022-11-04T16:21:24.849Z,6.20
2022-11-04T16:24:00.337Z,5.03
2022-11-04T16:26:37.717Z,5.40
2022-11-04T16:29:10.894Z,7.13
2022-11-04T16:31:38.224Z,9.77
2022-11-04T16:34:13.044Z,13.93
2022-11-04T16:36:40.200Z,19.67
2022-11-04T16:39:08.970Z,25.33
2022-11-04T16:41:38.807Z,25.52
2022-11-04T16:44:14.660Z,18.80
2022-11-04T16:46:41.794Z,8.60
2022-11-04T16:49:10.960Z,12.45
2022-11-04T16:51:37.975Z,11.43
2022-11-04T16:54:04.994Z,5.88
2022-11-04T16:56:34.580Z,7.43
2022-11-04T16:59:01.575Z,7.05
2022-11-04T17:01:28.658Z,6.07
2022-11-04T17:03:55.738Z,10.15
2022-11-04T17:06:22.916Z,6.10
2022-11-04T17:08:49.957Z,6.88
2022-11-04T17:11:16.931Z,6.97
2022-11-04T17:13:43.922Z,5.72
2022-11-04T17:16:13.675Z,6.45
2022-11-04T17:18:40.653Z,6.63
2022-11-04T17:21:09.846Z,8.90
2022-11-04T17:23:36.913Z,5.68
2022-11-04T17:26:04.057Z,6.57
2022-11-04T17:28:33.167Z,7.18
2022-11-04T17:31:02.686Z,5.72
2022-11-04T17:33:29.785Z,7.10
2022-11-04T17:35:57.118Z,6.97
2022-11-04T17:38:24.141Z,8.25
2022-11-04T17:41:09.788Z,8.23
2022-11-04T17:43:55.397Z,7.07
2022-11-04T17:46:34.621Z,8.73
2022-11-04T17:49:02.951Z,12.23
2022-11-04T17:51:32.019Z,8.32
2022-11-04T17:53:59.143Z,31.75
2022-11-04T17:56:26.609Z,34.95
2022-11-04T17:58:54.077Z,65.50
2022-11-04T18:01:23.349Z,61.72
2022-11-04T18:03:52.505Z,44.03
2022-11-04T18:06:21.225Z,43.33
2022-11-04T18:08:49.179Z,36.05
2022-11-04T18:11:35.000Z,89.53
2022-11-04T18:14:02.052Z,60.30
2022-11-04T18:16:29.205Z,37.63
2022-11-04T18:18:59.107Z,29.50
2022-11-04T18:21:27.220Z,30.70
2022-11-04T18:23:57.177Z,43.25
2022-11-04T18:26:25.284Z,60.80
2022-11-04T18:28:52.385Z,98.90
2022-11-04T18:31:28.955Z,80.53
2022-11-04T18:33:58.245Z,114.30
2022-11-04T18:36:25.244Z,64.40
2022-11-04T18:38:52.233Z,63.38
2022-11-04T18:41:19.372Z,46.90
2022-11-04T18:43:46.363Z,59.72
2022-11-04T18:46:15.890Z,46.65
2022-11-04T18:48:47.169Z,38.55
2022-11-04T18:51:16.806Z,44.65
2022-11-04T18:53:43.810Z,47.15
2022-11-04T18:56:15.825Z,45.10
2022-11-04T18:58:45.173Z,50.23
2022-11-04T19:01:15.365Z,47.15
2022-11-04T19:03:42.417Z,45.15
2022-11-04T19:06:12.536Z,47.72
2022-11-04T19:08:45.299Z,49.33
2022-11-04T19:11:17.686Z,45.05
2022-11-04T19:13:44.941Z,56.50
2022-11-04T19:16:13.608Z,46.47
2022-11-04T19:18:40.737Z,56.25
2022-11-04T19:21:12.620Z,30.83
2022-11-04T19:23:39.884Z,30.40
2022-11-04T19:26:09.933Z,22.30
2022-11-04T19:28:48.245Z,26.30
2022-11-04T19:31:22.099Z,17.33
2022-11-04T19:33:50.286Z,11.70
2022-11-04T19:36:19.631Z,12.50
2022-11-04T19:38:47.507Z,12.68
2022-11-04T19:41:35.669Z,12.70
2022-11-04T19:44:05.185Z,21.83
2022-11-04T19:46:33.521Z,26.15
2022-11-04T19:49:00.854Z,28.08
2022-11-04T19:51:31.943Z,33.28
2022-11-04T19:53:59.445Z,33.10
2022-11-04T19:56:26.598Z,32.28
2022-11-04T19:58:53.828Z,30.92
2022-11-04T20:01:21.440Z,27.17
2022-11-04T20:03:48.688Z,15.07
2022-11-04T20:06:17.778Z,13.07
2022-11-04T20:08:47.845Z,11.32
2022-11-04T20:11:16.552Z,11.55
2022-11-04T20:13:49.572Z,8.10
2022-11-04T20:16:28.030Z,7.53
2022-11-04T20:18:59.923Z,8.63
2022-11-04T20:21:29.960Z,13.88
2022-11-04T20:24:02.374Z,16.95
2022-11-04T20:26:30.877Z,8.40
2022-11-04T20:28:58.521Z,8.70
2022-11-04T20:31:28.831Z,11.13
2022-11-04T20:33:57.018Z,9.13
2022-11-04T20:36:26.804Z,13.93
2022-11-04T20:38:59.232Z,11.35
2022-11-04T20:41:26.984Z,8.77
2022-11-04T20:43:56.013Z,9.73
2022-11-04T20:46:25.963Z,6.72
2022-11-04T20:48:53.512Z,6.75
2022-11-04T20:51:23.176Z,7.05
2022-11-04T20:53:56.285Z,10.15
2022-11-04T20:56:26.157Z,11.40
2022-11-04T20:58:59.443Z,10.02
2022-11-04T21:01:29.721Z,11.40
2022-11-04T21:04:00.761Z,10.15
2022-11-04T21:06:28.898Z,11.52
2022-11-04T21:08:57.051Z,16.33
2022-11-04T21:11:27.563Z,20.33
2022-11-04T21:13:58.483Z,17.25
2022-11-04T21:16:25.476Z,17.48
2022-11-04T21:18:52.707Z,27.13
2022-11-04T21:21:19.754Z,23.75
2022-11-04T21:23:47.026Z,19.65
2022-11-04T21:26:23.001Z,18.13
2022-11-04T21:29:01.794Z,16.60
2022-11-04T21:31:30.655Z,16.83
2022-11-04T21:33:58.731Z,19.65
2022-11-04T21:36:25.814Z,29.42
2022-11-04T21:38:53.156Z,17.27
2022-11-04T21:41:26.048Z,14.60
2022-11-04T21:46:29.193Z,12.57
2022-11-04T21:48:57.283Z,14.32
2022-11-04T21:51:26.469Z,13.18
2022-11-04T21:53:53.565Z,16.02
2022-11-04T21:56:26.297Z,17.55
2022-11-04T21:58:54.315Z,16.35
2022-11-04T22:01:24.794Z,31.77
2022-11-04T22:03:55.317Z,30.17
2022-11-04T22:06:24.299Z,33.15
2022-11-04T22:08:54.506Z,30.98
2022-11-04T22:11:24.826Z,43.95
2022-11-04T22:14:02.547Z,46.22
2022-11-04T22:16:31.885Z,48.40
2022-11-04T22:19:00.961Z,48.28
2022-11-04T22:21:29.322Z,50.72
2022-11-04T22:23:57.008Z,43.35
2022-11-04T22:26:26.626Z,42.92
2022-11-04T22:28:54.686Z,35.08
2022-11-04T22:31:31.594Z,35.25
2022-11-04T22:33:59.959Z,38.22
2022-11-04T22:36:28.053Z,35.92
2022-11-04T22:38:56.058Z,36.00
2022-11-04T22:41:25.891Z,34.17
2022-11-04T22:43:53.084Z,36.08
2022-11-04T22:46:25.840Z,30.90
2022-11-04T22:48:52.916Z,30.67
2022-11-04T22:51:20.327Z,32.47
2022-11-04T22:53:55.855Z,34.65
2022-11-04T22:56:25.048Z,37.85
2022-11-04T22:58:54.377Z,37.53
2022-11-04T23:01:21.761Z,34.45
2022-11-04T23:03:52.122Z,46.90
2022-11-04T23:06:19.838Z,39.53
2022-11-04T23:08:46.929Z,44.78
2022-11-04T23:11:39.687Z,36.65
2022-11-04T23:14:25.482Z,39.60
2022-11-04T23:17:11.323Z,40.63
2022-11-04T23:19:39.407Z,45.00
2022-11-04T23:22:25.772Z,40.78
2022-11-04T23:25:11.462Z,29.88
2022-11-04T23:28:05.717Z,23.55
2022-11-04T23:30:35.779Z,40.55
2022-11-04T23:33:03.836Z,30.70
2022-11-04T23:35:56.804Z,34.03
2022-11-04T23:38:25.243Z,35.78
2022-11-04T23:41:15.296Z,33.95
2022-11-04T23:43:42.492Z,36.72
2022-11-04T23:46:28.545Z,40.70
2022-11-04T23:49:27.588Z,37.63
2022-11-04T23:52:12.845Z,39.25
2022-11-04T23:54:58.626Z,34.05
2022-11-04T23:57:44.259Z,35.08
